Time;durP1;ratioP1;P1;durP2;ratioP2;P2;SDS_P1;SDS_P2;PMS_P1;PMS_P2;Temp;Humidity;BMP_temperature;BMP_pressure;BME280_temperature;BME280_humidity;BME280_pressure;Samples;Min_cycle;Max_cycle;Signal;HPM_P1;HPM_P2
2023/11/27 00:00:52;;;;;;;37.58;35.03;;;7.80;99.90;;;;;;4980210;28;20037;-74
2023/11/27 00:03:18;;;;;;;29.52;27.40;;;7.80;99.90;;;;;;4992620;28;20041;-74
2023/11/27 00:05:45;;;;;;;26.20;24.15;;;7.80;99.90;;;;;;4990523;28;20019;-74
2023/11/27 00:08:11;;;;;;;33.42;30.95;;;7.90;99.90;;;;;;4988777;28;20035;-73
2023/11/27 00:10:37;;;;;;;37.90;35.47;;;7.90;99.90;;;;;;4991930;28;20031;-73
2023/11/27 00:13:03;;;;;;;34.42;31.85;;;7.90;99.90;;;;;;4979594;28;20039;-74
2023/11/27 00:15:29;;;;;;;48.50;45.20;;;7.90;99.90;;;;;;4988610;28;20388;-74
2023/11/27 00:17:55;;;;;;;37.80;35.20;;;7.80;99.90;;;;;;4993515;28;20038;-73
2023/11/27 00:20:21;;;;;;;29.92;27.70;;;7.90;99.90;;;;;;4993123;28;20037;-74
2023/11/27 00:22:47;;;;;;;34.85;32.58;;;7.90;99.90;;;;;;5012745;28;20034;-74
2023/11/27 00:25:14;;;;;;;40.50;37.80;;;7.90;99.90;;;;;;4996984;28;20491;-73
2023/11/27 00:27:40;;;;;;;32.03;29.85;;;7.90;99.90;;;;;;5010327;28;20057;-73
2023/11/27 00:30:07;;;;;;;28.95;26.70;;;8.00;99.90;;;;;;4996992;28;20491;-73
2023/11/27 00:32:33;;;;;;;33.63;31.13;;;8.00;99.90;;;;;;5005015;28;20054;-73
2023/11/27 00:34:59;;;;;;;28.00;25.70;;;8.00;99.90;;;;;;5001799;28;20049;-74
2023/11/27 00:37:26;;;;;;;46.63;43.50;;;8.00;99.90;;;;;;5007343;28;20034;-73
2023/11/27 00:39:52;;;;;;;35.15;32.83;;;8.00;99.90;;;;;;4992270;28;20039;-73
2023/11/27 00:42:18;;;;;;;49.55;45.97;;;8.00;99.90;;;;;;4991401;28;20034;-74
2023/11/27 00:44:44;;;;;;;33.95;31.55;;;8.00;99.90;;;;;;4990901;28;20054;-73
2023/11/27 00:47:10;;;;;;;26.45;24.55;;;8.00;99.90;;;;;;4991358;28;20066;-73
2023/11/27 00:49:36;;;;;;;28.40;26.33;;;8.00;99.90;;;;;;4992590;28;20027;-73
2023/11/27 00:52:03;;;;;;;22.65;20.95;;;8.00;99.90;;;;;;4992546;28;20491;-73
2023/11/27 00:54:29;;;;;;;26.63;24.70;;;8.00;99.90;;;;;;4989760;28;20369;-73
2023/11/27 00:56:55;;;;;;;30.15;27.63;;;8.00;99.90;;;;;;4986968;28;20042;-73
2023/11/27 00:59:21;;;;;;;24.48;22.52;;;7.90;99.90;;;;;;4987352;28;20476;-71
2023/11/27 01:01:47;;;;;;;30.42;28.30;;;7.90;99.90;;;;;;4983856;28;20050;-70
2023/11/27 01:04:13;;;;;;;33.47;30.80;;;7.90;99.90;;;;;;4991962;28;20037;-70
2023/11/27 01:06:39;;;;;;;30.25;27.80;;;8.00;99.90;;;;;;4996308;28;20038;-70
2023/11/27 01:09:06;;;;;;;33.83;31.13;;;8.00;99.90;;;;;;4993967;28;20382;-71
2023/11/27 01:11:32;;;;;;;32.95;30.58;;;7.90;99.90;;;;;;4993726;28;20497;-70
2023/11/27 01:13:58;;;;;;;76.63;72.15;;;7.70;99.90;;;;;;4994669;28;20403;-70
2023/11/27 01:16:25;;;;;;;79.47;75.00;;;7.60;99.90;;;;;;4988914;28;20102;-70
2023/11/27 01:18:52;;;;;;;34.60;32.40;;;7.50;99.90;;;;;;4996031;28;20050;-70
2023/11/27 01:21:18;;;;;;;21.17;19.35;;;7.40;99.90;;;;;;4996278;28;20415;-70
2023/11/27 01:23:44;;;;;;;18.98;16.95;;;7.40;99.90;;;;;;4994530;28;20031;-70
2023/11/27 01:26:10;;;;;;;20.50;18.90;;;7.40;99.90;;;;;;4995483;28;20487;-70
2023/11/27 01:28:36;;;;;;;23.25;21.25;;;7.40;99.90;;;;;;4996404;28;20033;-70
2023/11/27 01:31:05;;;;;;;19.10;17.25;;;7.40;99.90;;;;;;4995016;28;20534;-70
2023/11/27 01:33:31;;;;;;;21.15;19.33;;;7.50;99.90;;;;;;4993480;28;20145;-70
2023/11/27 01:35:58;;;;;;;18.05;16.27;;;7.60;99.90;;;;;;4995268;28;20037;-70
2023/11/27 01:38:24;;;;;;;21.85;20.13;;;7.60;99.90;;;;;;4994884;28;20407;-70
2023/11/27 01:40:50;;;;;;;30.63;28.52;;;7.60;99.90;;;;;;4994165;28;20038;-70
2023/11/27 01:43:16;;;;;;;31.17;28.95;;;7.60;99.90;;;;;;4995167;28;20455;-70
2023/11/27 01:45:42;;;;;;;33.90;31.67;;;7.60;99.90;;;;;;4992281;28;20038;-71
2023/11/27 01:48:09;;;;;;;34.78;31.77;;;7.70;99.90;;;;;;4978124;28;20026;-71
2023/11/27 01:50:35;;;;;;;31.80;29.73;;;7.60;99.90;;;;;;4993997;28;20034;-70
2023/11/27 01:53:01;;;;;;;28.50;26.42;;;7.60;99.90;;;;;;4993716;28;20046;-70
2023/11/27 01:55:28;;;;;;;27.55;25.38;;;7.50;99.90;;;;;;4993408;28;20033;-70
2023/11/27 01:57:54;;;;;;;29.88;27.85;;;7.40;99.90;;;;;;4994975;28;20042;-70
2023/11/27 02:00:21;;;;;;;31.77;29.50;;;7.40;99.90;;;;;;5002214;28;20030;-71
2023/11/27 02:02:49;;;;;;;30.52;28.38;;;7.40;99.90;;;;;;5000413;28;20065;-73
2023/11/27 02:05:15;;;;;;;23.38;21.48;;;7.40;99.90;;;;;;4994902;28;20038;-72
2023/11/27 02:07:44;;;;;;;23.92;21.92;;;7.50;99.90;;;;;;4994365;28;20026;-74
2023/11/27 02:10:11;;;;;;;29.42;27.38;;;7.50;99.90;;;;;;4993848;28;20030;-74
2023/11/27 02:12:37;;;;;;;48.35;45.55;;;7.60;99.90;;;;;;4994611;28;20491;-73
2023/11/27 02:15:04;;;;;;;46.70;43.88;;;7.60;99.90;;;;;;4994506;28;20025;-73
2023/11/27 02:17:30;;;;;;;43.97;41.08;;;7.80;99.90;;;;;;4994213;28;20039;-74
2023/11/27 02:19:56;;;;;;;48.63;45.53;;;7.70;99.90;;;;;;4994290;28;20038;-73
2023/11/27 02:22:25;;;;;;;62.92;59.13;;;7.60;99.90;;;;;;5002137;28;20037;-73
2023/11/27 02:24:51;;;;;;;56.17;52.80;;;7.60;99.90;;;;;;4994125;28;20057;-74
2023/11/27 02:27:17;;;;;;;54.00;50.72;;;7.60;99.90;;;;;;4993777;28;20033;-73
2023/11/27 02:29:43;;;;;;;52.22;48.78;;;7.50;99.90;;;;;;4995403;28;20037;-73
2023/11/27 02:32:09;;;;;;;51.30;47.88;;;7.60;99.90;;;;;;4989274;28;20380;-73
2023/11/27 02:34:36;;;;;;;51.00;47.75;;;7.60;99.90;;;;;;4994642;28;20494;-72
2023/11/27 02:37:02;;;;;;;52.80;49.60;;;7.60;99.90;;;;;;4994263;28;20034;-73
2023/11/27 02:39:28;;;;;;;65.00;60.90;;;7.60;99.90;;;;;;4977233;28;20035;-73
2023/11/27 02:41:55;;;;;;;72.40;67.97;;;7.70;99.90;;;;;;4989772;28;20076;-73
2023/11/27 02:44:21;;;;;;;59.38;55.65;;;7.70;99.90;;;;;;4991630;28;20038;-73
2023/11/27 02:46:47;;;;;;;98.65;93.20;;;7.80;99.90;;;;;;4992029;28;20034;-73
2023/11/27 02:49:13;;;;;;;68.18;64.20;;;7.80;99.90;;;;;;4992475;28;20034;-73
2023/11/27 02:51:40;;;;;;;83.72;78.85;;;7.90;99.90;;;;;;4993527;28;20026;-73
2023/11/27 02:54:07;;;;;;;80.47;76.00;;;7.80;99.90;;;;;;4993356;28;20046;-74
2023/11/27 02:56:33;;;;;;;64.80;61.00;;;7.90;99.90;;;;;;4992662;28;20368;-74
2023/11/27 02:58:59;;;;;;;69.28;65.47;;;7.80;99.90;;;;;;4993987;28;20035;-74
2023/11/27 03:01:28;;;;;;;58.47;55.17;;;7.80;99.90;;;;;;4992086;28;20034;-73
2023/11/27 03:03:55;;;;;;;69.20;65.38;;;7.80;99.90;;;;;;4980356;28;20041;-73
2023/11/27 03:06:21;;;;;;;56.40;53.25;;;7.80;99.90;;;;;;4993519;28;20046;-71
2023/11/27 03:08:48;;;;;;;60.60;57.13;;;7.90;99.90;;;;;;4992762;28;20057;-70
2023/11/27 03:11:14;;;;;;;62.17;58.72;;;7.90;99.90;;;;;;4992832;28;20049;-71
2023/11/27 03:13:40;;;;;;;59.65;56.40;;;7.90;99.90;;;;;;4994145;28;20038;-70
2023/11/27 03:16:06;;;;;;;53.40;50.25;;;7.90;99.90;;;;;;4993387;28;20042;-70
2023/11/27 03:18:32;;;;;;;39.60;36.95;;;8.00;99.90;;;;;;4993794;28;20061;-71
2023/11/27 03:20:58;;;;;;;38.53;36.22;;;7.90;99.90;;;;;;5000116;28;20034;-70
2023/11/27 03:23:25;;;;;;;56.08;52.70;;;7.90;99.90;;;;;;4991759;28;20344;-70
2023/11/27 03:25:51;;;;;;;58.80;55.38;;;8.00;99.90;;;;;;4992386;28;20047;-71
2023/11/27 03:28:17;;;;;;;46.05;43.30;;;8.00;99.90;;;;;;4991986;28;20041;-70
2023/11/27 03:30:43;;;;;;;55.22;52.03;;;8.00;99.90;;;;;;4991665;28;20045;-71
2023/11/27 03:33:09;;;;;;;72.13;68.05;;;8.00;99.90;;;;;;4992737;28;20038;-71
2023/11/27 03:35:35;;;;;;;59.28;55.55;;;8.10;99.90;;;;;;4992963;28;20046;-71
2023/11/27 03:38:01;;;;;;;42.30;39.92;;;8.00;99.90;;;;;;4979119;28;20038;-70
2023/11/27 03:40:27;;;;;;;49.05;45.95;;;8.00;99.90;;;;;;4990727;28;20046;-71
2023/11/27 03:42:53;;;;;;;53.10;50.08;;;8.10;99.90;;;;;;4993941;28;20030;-70
2023/11/27 03:45:20;;;;;;;52.70;49.47;;;8.00;99.90;;;;;;4982307;28;20464;-70
2023/11/27 03:47:46;;;;;;;59.90;56.47;;;8.00;99.90;;;;;;4993483;28;20026;-70
2023/11/27 03:50:12;;;;;;;57.00;53.88;;;8.10;99.90;;;;;;4992521;28;20491;-70
2023/11/27 03:52:38;;;;;;;67.75;64.25;;;8.10;99.90;;;;;;4987393;28;20039;-70
2023/11/27 03:55:04;;;;;;;61.65;57.95;;;8.10;99.90;;;;;;4991465;28;20038;-70
2023/11/27 03:57:30;;;;;;;63.28;59.78;;;8.20;99.90;;;;;;4993324;28;20403;-70
2023/11/27 03:59:56;;;;;;;69.90;66.15;;;8.20;99.90;;;;;;4993368;28;20090;-70
2023/11/27 04:02:23;;;;;;;69.63;65.93;;;8.20;99.90;;;;;;4991398;28;20053;-70
2023/11/27 04:04:49;;;;;;;47.08;44.38;;;8.20;99.90;;;;;;5005406;28;20033;-70
2023/11/27 04:07:15;;;;;;;73.03;69.15;;;8.30;99.90;;;;;;5001019;28;20217;-72
2023/11/27 04:09:41;;;;;;;82.20;77.53;;;8.30;99.90;;;;;;4979596;28;20435;-74
2023/11/27 04:12:08;;;;;;;59.72;56.38;;;8.20;99.90;;;;;;4988914;28;20046;-74
2023/11/27 04:14:34;;;;;;;55.97;52.90;;;8.20;99.90;;;;;;4989964;28;20058;-74
2023/11/27 04:17:01;;;;;;;34.05;32.05;;;8.20;99.90;;;;;;4987131;28;20030;-73
2023/11/27 04:19:27;;;;;;;37.15;34.70;;;8.10;99.90;;;;;;4993718;28;20038;-74
2023/11/27 04:21:53;;;;;;;35.45;33.15;;;8.20;99.90;;;;;;4993956;28;20045;-74
2023/11/27 04:24:19;;;;;;;32.72;30.50;;;8.20;99.90;;;;;;4991561;28;20042;-74
2023/11/27 04:26:45;;;;;;;33.63;31.55;;;8.20;99.90;;;;;;4991027;28;20064;-74
2023/11/27 04:29:11;;;;;;;36.33;33.92;;;8.20;99.90;;;;;;4993235;28;20065;-74
2023/11/27 04:31:38;;;;;;;44.08;41.53;;;8.20;99.90;;;;;;4992002;28;20423;-74
2023/11/27 04:34:04;;;;;;;41.83;39.53;;;8.20;99.90;;;;;;4991602;28;20080;-73
2023/11/27 04:36:30;;;;;;;54.03;51.08;;;8.10;99.90;;;;;;4991831;28;20031;-73
2023/11/27 04:38:56;;;;;;;42.65;39.70;;;8.10;99.90;;;;;;4991689;28;20038;-74
2023/11/27 04:41:22;;;;;;;41.40;38.95;;;8.10;99.90;;;;;;4990305;28;20045;-74
2023/11/27 04:43:48;;;;;;;40.67;38.28;;;8.10;99.90;;;;;;4990727;28;20038;-73
2023/11/27 04:46:14;;;;;;;44.42;41.78;;;8.10;99.90;;;;;;4982479;28;20030;-74
2023/11/27 04:48:40;;;;;;;42.22;39.80;;;8.10;99.90;;;;;;4991807;28;20493;-74
2023/11/27 04:51:06;;;;;;;35.08;32.97;;;8.10;99.90;;;;;;4992485;28;20039;-74
2023/11/27 04:53:32;;;;;;;35.85;33.17;;;8.00;99.90;;;;;;4984676;28;20050;-73
2023/11/27 04:55:59;;;;;;;35.70;33.63;;;8.00;99.90;;;;;;4980001;28;20034;-73
2023/11/27 04:58:25;;;;;;;35.60;33.38;;;8.00;99.90;;;;;;4992822;28;20046;-74
2023/11/27 05:00:51;;;;;;;34.95;32.50;;;8.00;99.90;;;;;;4992137;28;20039;-74
2023/11/27 05:03:17;;;;;;;39.33;36.97;;;8.10;99.90;;;;;;4992375;28;20054;-73
2023/11/27 05:05:43;;;;;;;43.45;40.72;;;8.10;99.90;;;;;;4992751;28;20042;-73
2023/11/27 05:08:10;;;;;;;42.72;40.22;;;8.10;99.90;;;;;;4991134;28;20110;-73
2023/11/27 05:10:38;;;;;;;45.78;43.13;;;8.10;99.90;;;;;;4984715;28;20111;-73
2023/11/27 05:13:06;;;;;;;46.78;44.00;;;8.10;99.90;;;;;;4992795;28;20057;-74
2023/11/27 05:15:32;;;;;;;47.53;44.65;;;8.20;99.90;;;;;;4992104;28;20053;-74
2023/11/27 05:17:58;;;;;;;47.38;44.05;;;8.20;99.90;;;;;;4992164;28;20037;-74
2023/11/27 05:20:24;;;;;;;39.88;37.58;;;8.30;99.90;;;;;;5001097;28;20041;-71
2023/11/27 05:22:50;;;;;;;40.40;37.80;;;8.30;99.90;;;;;;4989595;28;20042;-70
2023/11/27 05:25:16;;;;;;;37.47;34.53;;;8.30;99.90;;;;;;4991432;28;20050;-70
2023/11/27 05:27:42;;;;;;;40.60;37.92;;;8.30;99.90;;;;;;4991301;28;20098;-72
2023/11/27 05:30:09;;;;;;;35.70;33.50;;;8.30;99.90;;;;;;4990445;28;20037;-71
2023/11/27 05:32:36;;;;;;;37.15;34.58;;;8.30;99.90;;;;;;4990715;28;20029;-70
2023/11/27 05:35:02;;;;;;;43.08;40.33;;;8.30;99.90;;;;;;4992676;28;20054;-71
2023/11/27 05:37:28;;;;;;;38.65;36.10;;;8.30;99.90;;;;;;4992714;28;20041;-70
2023/11/27 05:39:57;;;;;;;41.15;38.75;;;8.30;99.90;;;;;;4992172;28;20033;-71
2023/11/27 05:42:26;;;;;;;45.03;42.15;;;8.30;99.90;;;;;;4992390;28;20050;-70
2023/11/27 05:44:53;;;;;;;38.47;35.92;;;8.30;99.90;;;;;;4992316;28;20037;-70
2023/11/27 05:47:19;;;;;;;42.90;39.97;;;8.30;99.90;;;;;;4990224;28;20607;-70
2023/11/27 05:49:45;;;;;;;41.35;38.80;;;8.30;99.90;;;;;;4992305;28;20045;-71
2023/11/27 05:52:11;;;;;;;39.95;37.30;;;8.30;99.90;;;;;;4994729;28;20463;-71
2023/11/27 05:54:37;;;;;;;41.45;38.95;;;8.30;99.90;;;;;;4994788;28;20053;-70
2023/11/27 05:57:04;;;;;;;45.60;42.55;;;8.40;99.90;;;;;;4995698;28;20030;-71
2023/11/27 05:59:30;;;;;;;42.67;39.75;;;8.40;99.90;;;;;;4995877;28;20037;-71
2023/11/27 06:01:56;;;;;;;43.53;40.47;;;8.40;99.90;;;;;;5007462;28;20046;-71
2023/11/27 06:04:22;;;;;;;39.33;37.13;;;8.40;99.90;;;;;;5015883;28;20049;-71
2023/11/27 06:06:48;;;;;;;43.00;40.58;;;8.40;99.90;;;;;;5014720;28;20070;-71
2023/11/27 06:09:15;;;;;;;40.75;38.25;;;8.40;99.90;;;;;;5015904;28;20038;-71
2023/11/27 06:11:42;;;;;;;42.40;39.50;;;8.40;99.90;;;;;;5014461;28;20022;-71
2023/11/27 06:14:08;;;;;;;43.75;40.92;;;8.50;99.90;;;;;;5015296;28;20065;-71
2023/11/27 06:16:34;;;;;;;40.65;38.05;;;8.50;99.90;;;;;;5013917;28;20037;-70
2023/11/27 06:19:00;;;;;;;38.72;36.28;;;8.50;99.90;;;;;;5015235;28;20399;-70
2023/11/27 06:21:27;;;;;;;39.05;36.45;;;8.50;99.90;;;;;;5009576;28;20026;-70
2023/11/27 06:23:53;;;;;;;36.83;34.55;;;8.50;99.90;;;;;;5012890;28;20046;-74
2023/11/27 06:26:20;;;;;;;36.08;33.40;;;8.60;99.90;;;;;;5004026;28;20042;-74
2023/11/27 06:28:46;;;;;;;36.35;33.63;;;8.60;99.90;;;;;;5013825;28;20399;-74
2023/11/27 06:31:12;;;;;;;39.17;36.53;;;8.60;99.90;;;;;;5000642;28;20045;-75
2023/11/27 06:33:39;;;;;;;42.60;40.10;;;8.60;99.90;;;;;;4995285;28;20045;-74
2023/11/27 06:36:05;;;;;;;43.58;40.63;;;8.70;99.90;;;;;;5013506;28;20399;-74
2023/11/27 06:38:31;;;;;;;43.25;40.22;;;8.70;99.90;;;;;;5014878;28;20475;-74
2023/11/27 06:40:58;;;;;;;44.53;41.88;;;8.70;99.90;;;;;;5004819;28;20038;-74
2023/11/27 06:43:24;;;;;;;49.67;45.92;;;8.80;99.90;;;;;;4995440;28;20034;-75
2023/11/27 06:45:52;;;;;;;43.83;41.13;;;8.80;99.90;;;;;;4994238;28;20041;-74
2023/11/27 06:48:19;;;;;;;45.72;42.88;;;8.80;99.90;;;;;;4995000;28;20379;-74
2023/11/27 06:50:45;;;;;;;48.70;45.58;;;8.90;99.90;;;;;;5001939;28;20038;-74
2023/11/27 06:53:11;;;;;;;45.47;42.63;;;8.90;99.90;;;;;;5014551;28;20034;-74
2023/11/27 06:55:38;;;;;;;40.17;37.45;;;8.90;99.90;;;;;;5014320;28;20053;-74
2023/11/27 06:58:04;;;;;;;59.65;55.38;;;8.90;99.90;;;;;;5014400;28;20041;-74
2023/11/27 07:00:31;;;;;;;39.83;36.92;;;8.90;99.90;;;;;;5006601;28;20041;-74
2023/11/27 07:02:58;;;;;;;33.53;31.42;;;8.90;99.90;;;;;;4993726;28;20026;-74
2023/11/27 07:05:24;;;;;;;36.45;33.63;;;8.90;99.90;;;;;;4994541;28;20030;-74
2023/11/27 07:07:50;;;;;;;35.80;33.47;;;8.90;99.90;;;;;;4994738;28;20379;-74
2023/11/27 07:10:16;;;;;;;35.78;33.53;;;8.90;99.90;;;;;;4997551;28;20057;-74
2023/11/27 07:12:43;;;;;;;32.47;29.88;;;9.00;99.90;;;;;;5014053;28;20041;-74
2023/11/27 07:15:10;;;;;;;27.42;25.55;;;9.00;99.90;;;;;;5008325;28;20038;-78
2023/11/27 07:17:37;;;;;;;45.28;42.22;;;9.00;99.90;;;;;;4994112;28;20045;-75
2023/11/27 07:20:04;;;;;;;28.70;26.58;;;9.00;99.90;;;;;;4980586;28;20146;-76
2023/11/27 07:22:30;;;;;;;33.55;30.90;;;9.00;99.90;;;;;;4993153;28;20035;-76
2023/11/27 07:24:56;;;;;;;188.90;178.43;;;9.10;99.90;;;;;;4990011;28;20049;-75
2023/11/27 07:27:22;;;;;;;99.18;93.72;;;9.10;99.90;;;;;;4999934;28;20415;-71
2023/11/27 07:29:51;;;;;;;189.57;179.50;;;9.00;99.90;;;;;;5002809;28;20034;-70
2023/11/27 07:32:17;;;;;;;161.52;152.77;;;9.00;99.90;;;;;;5002353;28;20491;-71
2023/11/27 07:34:43;;;;;;;171.02;161.15;;;9.00;99.90;;;;;;4993540;28;20042;-71
2023/11/27 07:37:09;;;;;;;145.20;137.30;;;9.00;99.90;;;;;;4994118;28;20490;-71
2023/11/27 07:39:37;;;;;;;120.30;113.68;;;9.00;99.90;;;;;;4993045;28;20026;-71
2023/11/27 07:42:03;;;;;;;132.07;124.47;;;9.00;99.90;;;;;;4982550;28;20365;-71
2023/11/27 07:44:29;;;;;;;140.75;132.80;;;9.00;99.90;;;;;;5003950;28;20078;-71
2023/11/27 07:46:55;;;;;;;175.10;84.32;;;9.00;99.90;;;;;;4992278;28;20042;-71
2023/11/27 07:49:21;;;;;;;253.07;236.23;;;9.00;99.90;;;;;;4993709;28;20510;-70
2023/11/27 07:51:47;;;;;;;113.28;106.88;;;9.00;99.90;;;;;;4992484;28;20034;-70
2023/11/27 07:54:13;;;;;;;138.55;130.98;;;9.00;99.90;;;;;;5002321;28;20038;-70
2023/11/27 07:56:39;;;;;;;126.10;118.85;;;9.00;99.90;;;;;;5011843;28;20034;-71
2023/11/27 07:59:06;;;;;;;122.50;115.43;;;9.00;99.90;;;;;;4993597;28;20037;-70
2023/11/27 08:01:32;;;;;;;125.28;118.32;;;9.00;99.90;;;;;;4996181;28;20045;-71
2023/11/27 08:03:58;;;;;;;108.07;101.70;;;9.00;99.90;;;;;;4998758;28;20037;-70
2023/11/27 08:06:25;;;;;;;97.72;92.32;;;9.00;99.90;;;;;;5011799;28;20463;-70
2023/11/27 08:08:53;;;;;;;30.02;27.92;;;9.00;99.90;;;;;;5000611;28;20026;-70
2023/11/27 08:11:29;;;;;;;31.40;28.75;;;9.10;99.90;;;;;;4995900;28;20221;-69
2023/11/27 08:13:55;;;;;;;33.25;30.67;;;9.10;99.90;;;;;;4988945;28;20038;-70
2023/11/27 08:16:21;;;;;;;39.88;36.95;;;9.10;99.90;;;;;;4990053;28;20038;-71
2023/11/27 08:18:47;;;;;;;35.35;32.95;;;9.10;99.90;;;;;;4993105;28;20034;-70
2023/11/27 08:21:14;;;;;;;42.90;39.63;;;9.10;99.90;;;;;;4999717;28;20037;-70
2023/11/27 08:23:43;;;;;;;39.67;36.78;;;9.10;99.90;;;;;;5012653;28;20060;-70
2023/11/27 08:26:10;;;;;;;33.58;30.95;;;9.10;99.90;;;;;;5011646;28;20038;-70
2023/11/27 08:28:37;;;;;;;35.47;32.85;;;9.10;99.90;;;;;;5011516;28;20033;-75
2023/11/27 08:31:04;;;;;;;39.20;36.10;;;9.20;99.90;;;;;;4998464;28;20034;-75
2023/11/27 08:33:30;;;;;;;39.65;36.22;;;9.20;99.90;;;;;;4992927;28;20045;-75
2023/11/27 08:35:57;;;;;;;45.70;33.13;;;9.10;99.90;;;;;;4992541;28;20030;-73
2023/11/27 08:38:24;;;;;;;32.70;30.23;;;9.10;99.90;;;;;;4991930;28;20035;-75
2023/11/27 08:40:51;;;;;;;36.80;34.00;;;9.10;99.90;;;;;;4981610;28;20057;-75
2023/11/27 08:43:22;;;;;;;47.03;44.03;;;9.10;99.90;;;;;;4992851;28;20030;-74
2023/11/27 08:45:49;;;;;;;65.18;61.03;;;9.10;99.90;;;;;;4992318;28;20537;-76
2023/11/27 08:48:16;;;;;;;66.18;62.00;;;9.10;99.90;;;;;;4992919;28;20050;-75
2023/11/27 08:50:42;;;;;;;54.55;51.22;;;9.10;99.90;;;;;;4992244;28;20042;-75
2023/11/27 08:53:09;;;;;;;56.58;53.20;;;9.20;99.90;;;;;;4993382;28;20047;-75
2023/11/27 08:55:35;;;;;;;46.75;43.38;;;9.20;99.90;;;;;;4992056;28;20046;-75
2023/11/27 08:58:03;;;;;;;41.92;39.28;;;9.20;99.90;;;;;;4992955;28;20035;-75
2023/11/27 09:00:30;;;;;;;52.53;49.25;;;9.20;99.90;;;;;;4989714;28;20050;-75
2023/11/27 09:02:57;;;;;;;59.97;56.50;;;9.30;99.90;;;;;;4990076;28;20064;-74
2023/11/27 09:05:26;;;;;;;41.90;38.83;;;9.30;99.90;;;;;;4983733;28;20420;-75
2023/11/27 09:07:57;;;;;;;47.33;43.00;;;9.30;99.90;;;;;;4979705;28;20059;-76
2023/11/27 09:10:24;;;;;;;46.22;43.42;;;9.30;99.90;;;;;;4992183;28;20043;-76
2023/11/27 09:12:50;;;;;;;39.33;36.92;;;9.40;99.90;;;;;;4992639;28;20033;-75
2023/11/27 09:15:20;;;;;;;33.72;31.42;;;9.40;99.90;;;;;;4991774;28;20038;-74
2023/11/27 09:17:46;;;;;;;39.25;36.75;;;9.40;99.90;;;;;;4991332;28;20065;-76
2023/11/27 09:20:15;;;;;;;37.50;34.95;;;9.40;99.90;;;;;;4992681;28;20041;-77
2023/11/27 09:22:41;;;;;;;35.40;33.10;;;9.50;99.90;;;;;;4993152;28;20042;-76
2023/11/27 09:25:12;;;;;;;35.60;33.17;;;9.50;99.90;;;;;;4983146;28;20058;-76
2023/11/27 09:27:38;;;;;;;;;;;9.50;99.90;;;;;;4986237;28;20407;-76
2023/11/27 09:30:07;;;;;;;69.82;65.93;;;9.50;99.90;;;;;;4978353;28;19909;-76
2023/11/27 09:32:34;;;;;;;32.38;30.40;;;9.50;99.90;;;;;;4990478;28;20039;-76
2023/11/27 09:35:04;;;;;;;42.28;39.72;;;9.50;99.90;;;;;;4992574;28;20496;-76
2023/11/27 09:37:34;;;;;;;37.45;35.15;;;9.60;99.90;;;;;;4997921;28;20049;-77
2023/11/27 09:40:00;;;;;;;40.08;37.55;;;9.60;99.90;;;;;;4994378;28;20043;-76
2023/11/27 09:42:35;;;;;;;49.58;45.83;;;9.60;99.90;;;;;;4975130;28;20050;-77
2023/11/27 09:45:04;;;;;;;45.03;42.17;;;9.60;99.90;;;;;;4977142;28;20046;-77
2023/11/27 09:47:31;;;;;;;46.88;43.45;;;9.60;99.90;;;;;;4998611;28;20050;-80
2023/11/27 09:49:59;;;;;;;83.60;78.88;;;9.70;99.90;;;;;;4982803;28;20031;-84
2023/11/27 09:52:30;;;;;;;57.30;53.65;;;9.80;99.90;;;;;;4993918;28;20038;-71
2023/11/27 09:54:57;;;;;;;48.03;44.85;;;9.80;99.90;;;;;;4995200;28;20054;-71
2023/11/27 09:57:24;;;;;;;84.55;79.30;;;9.80;99.90;;;;;;4995641;28;20026;-71
2023/11/27 09:59:50;;;;;;;56.28;52.92;;;9.80;99.90;;;;;;4994452;28;20476;-71
2023/11/27 10:02:16;;;;;;;39.88;37.67;;;9.80;99.90;;;;;;5006691;28;20038;-72
2023/11/27 10:04:42;;;;;;;32.42;30.23;;;9.80;99.90;;;;;;4993969;28;20033;-71
2023/11/27 10:07:08;;;;;;;32.55;30.65;;;9.90;99.90;;;;;;4993939;28;20035;-71
2023/11/27 10:09:34;;;;;;;35.97;33.88;;;9.90;99.90;;;;;;4994018;28;20031;-71
2023/11/27 10:12:01;;;;;;;31.80;30.00;;;10.00;99.90;;;;;;5010591;28;20046;-71
2023/11/27 10:14:28;;;;;;;52.10;49.30;;;10.00;99.90;;;;;;4997118;28;20039;-70
2023/11/27 10:16:58;;;;;;;35.33;32.42;;;10.10;99.90;;;;;;4993528;28;20499;-70
2023/11/27 10:19:25;;;;;;;39.90;37.60;;;10.20;99.90;;;;;;4994693;28;20038;-70
2023/11/27 10:21:51;;;;;;;46.63;43.95;;;10.20;99.90;;;;;;4999030;28;20392;-70
2023/11/27 10:24:18;;;;;;;58.83;55.63;;;10.30;99.90;;;;;;4975640;28;20046;-71
2023/11/27 10:26:44;;;;;;;89.85;85.28;;;10.40;99.90;;;;;;4987788;28;20034;-70
2023/11/27 10:29:11;;;;;;;92.43;87.65;;;10.30;99.90;;;;;;4996822;28;20047;-71
2023/11/27 10:31:37;;;;;;;53.05;50.25;;;10.40;99.90;;;;;;4999711;28;20039;-70
2023/11/27 10:34:05;;;;;;;40.22;38.03;;;10.40;99.90;;;;;;4993767;28;20035;-71
2023/11/27 10:36:33;;;;;;;49.85;47.10;;;10.50;99.90;;;;;;4991931;28;20510;-71
2023/11/27 10:39:00;;;;;;;52.15;49.17;;;10.50;99.90;;;;;;4988821;28;20030;-71
2023/11/27 10:41:27;;;;;;;54.05;51.17;;;10.60;99.90;;;;;;4986625;28;20386;-71
2023/11/27 10:43:53;;;;;;;39.88;37.40;;;10.60;99.90;;;;;;4999272;28;20030;-71
2023/11/27 10:46:19;;;;;;;44.05;41.60;;;10.60;99.90;;;;;;4998767;28;20091;-71
2023/11/27 10:48:46;;;;;;;46.53;43.78;;;10.70;99.90;;;;;;4993740;28;20041;-78
2023/11/27 10:51:14;;;;;;;41.53;38.85;;;10.70;99.90;;;;;;5002035;28;20049;-78
2023/11/27 10:53:45;;;;;;;45.85;42.70;;;10.70;99.90;;;;;;5003264;28;20043;-78
2023/11/27 10:56:11;;;;;;;38.87;36.50;;;10.70;99.90;;;;;;4986697;28;20042;-77
2023/11/27 10:58:38;;;;;;;39.97;37.70;;;10.70;99.90;;;;;;4993281;28;20285;-76
2023/11/27 11:01:07;;;;;;;40.17;37.90;;;10.80;99.90;;;;;;4992417;28;20050;-77
2023/11/27 11:03:34;;;;;;;33.63;31.55;;;10.80;99.90;;;;;;4993260;28;20407;-76
2023/11/27 11:06:00;;;;;;;41.75;39.22;;;10.80;99.90;;;;;;4994091;28;20042;-76
2023/11/27 11:08:27;;;;;;;53.70;50.83;;;10.80;99.90;;;;;;4993628;28;20036;-76
2023/11/27 11:10:57;;;;;;;56.28;52.97;;;10.80;99.90;;;;;;4992964;28;20041;-76
2023/11/27 11:13:24;;;;;;;43.72;41.05;;;10.80;99.90;;;;;;4994343;28;20034;-76
2023/11/27 11:16:23;;;;;;;41.50;38.97;;;10.90;99.90;;;;;;4993900;28;20053;-75
2023/11/27 11:19:12;;;;;;;42.33;39.20;;;10.90;99.90;;;;;;4994682;28;20030;-76
2023/11/27 11:21:39;;;;;;;75.95;71.47;;;10.90;99.90;;;;;;5002698;28;20037;-75
2023/11/27 11:24:22;;;;;;;108.10;102.32;;;10.90;99.90;;;;;;5007253;28;20041;-76
2023/11/27 11:27:16;;;;;;;111.45;105.43;;;10.90;99.90;;;;;;4992895;28;20146;-76
2023/11/27 11:29:44;;;;;;;117.65;111.28;;;11.00;99.90;;;;;;4994480;28;20399;-76
2023/11/27 11:32:19;;;;;;;98.88;93.32;;;10.90;99.90;;;;;;4991771;28;20045;-76
2023/11/27 11:34:51;;;;;;;110.53;103.55;;;11.00;99.90;;;;;;4989989;28;20065;-76
2023/11/27 11:37:21;;;;;;;70.97;66.75;;;11.10;99.90;;;;;;5012979;28;20037;-76
2023/11/27 11:39:49;;;;;;;70.53;66.57;;;11.10;99.90;;;;;;5013622;28;20033;-76
2023/11/27 11:42:18;;;;;;;71.97;67.82;;;11.10;99.90;;;;;;4997764;28;20770;-76
2023/11/27 11:45:05;;;;;;;103.18;97.40;;;11.10;99.90;;;;;;4978567;28;20480;-76
2023/11/27 11:47:33;;;;;;;65.75;61.75;;;11.20;99.90;;;;;;4992236;28;20492;-76
2023/11/27 11:50:28;;;;;;;62.13;58.47;;;11.20;99.90;;;;;;4977610;28;20372;-76
2023/11/27 11:52:55;;;;;;;61.03;57.22;;;11.20;99.90;;;;;;4993535;28;20130;-69
2023/11/27 11:55:31;;;;;;;49.35;45.90;;;11.10;99.90;;;;;;4979614;28;20034;-69
2023/11/27 11:58:05;;;;;;;69.28;65.18;;;11.20;99.90;;;;;;4984450;28;20031;-70
2023/11/27 12:00:42;;;;;;;53.33;49.75;;;11.10;99.90;;;;;;4988186;28;20030;-70
2023/11/27 12:03:15;;;;;;;38.83;36.20;;;11.20;99.90;;;;;;5003309;28;20045;-70
2023/11/27 12:05:54;;;;;;;69.50;64.85;;;11.20;99.90;;;;;;4967875;28;20045;-70
2023/11/27 12:08:24;;;;;;;58.47;54.88;;;11.10;99.90;;;;;;4965914;28;20042;-69
2023/11/27 12:10:51;;;;;;;69.70;65.65;;;11.10;99.90;;;;;;4991226;28;20038;-70
2023/11/27 12:13:24;;;;;;;71.97;67.25;;;11.10;99.90;;;;;;4991867;28;20038;-70
2023/11/27 12:15:58;;;;;;;94.30;88.63;;;11.10;99.90;;;;;;4990357;28;20061;-70
2023/11/27 12:18:30;;;;;;;79.78;74.65;;;11.10;99.90;;;;;;4991753;28;20368;-69
2023/11/27 12:20:56;;;;;;;79.43;73.97;;;11.10;99.90;;;;;;4998687;28;20041;-70
2023/11/27 12:23:22;;;;;;;68.68;64.10;;;11.10;99.90;;;;;;5011295;28;20030;-69
2023/11/27 12:25:49;;;;;;;64.88;60.58;;;11.10;99.90;;;;;;5003227;28;20149;-70
2023/11/27 12:28:15;;;;;;;64.45;60.08;;;11.10;99.90;;;;;;4979307;28;20030;-70
2023/11/27 12:30:43;;;;;;;54.03;50.33;;;11.10;99.90;;;;;;4990717;28;20038;-69
2023/11/27 12:33:09;;;;;;;62.40;58.25;;;11.10;99.90;;;;;;4990530;28;20041;-70